sensor_id;sensor_type;location;lat;lon;timestamp;P1;durP1;ratioP1;P2;durP2;ratioP2
27025;SDS011;14565;48.626;8.978;2023-04-08T00:00:04;30.30;;;18.05;;
27025;SDS011;14565;48.626;8.978;2023-04-08T00:02:33;28.48;;;16.88;;
27025;SDS011;14565;48.626;8.978;2023-04-08T00:05:01;32.08;;;18.38;;
27025;SDS011;14565;48.626;8.978;2023-04-08T00:07:32;33.03;;;18.40;;
27025;SDS011;14565;48.626;8.978;2023-04-08T00:10:21;33.65;;;18.30;;
27025;SDS011;14565;48.626;8.978;2023-04-08T00:13:04;31.45;;;18.02;;
27025;SDS011;14565;48.626;8.978;2023-04-08T00:15:33;31.20;;;18.25;;
27025;SDS011;14565;48.626;8.978;2023-04-08T00:18:05;31.75;;;17.98;;
27025;SDS011;14565;48.626;8.978;2023-04-08T00:20:32;34.65;;;19.38;;
27025;SDS011;14565;48.626;8.978;2023-04-08T00:23:06;33.45;;;18.88;;
27025;SDS011;14565;48.626;8.978;2023-04-08T00:25:34;33.03;;;18.42;;
27025;SDS011;14565;48.626;8.978;2023-04-08T00:28:00;31.77;;;18.55;;
27025;SDS011;14565;48.626;8.978;2023-04-08T00:30:29;32.67;;;19.05;;
27025;SDS011;14565;48.626;8.978;2023-04-08T00:35:23;33.47;;;18.55;;
27025;SDS011;14565;48.626;8.978;2023-04-08T00:37:49;30.13;;;17.25;;
27025;SDS011;14565;48.626;8.978;2023-04-08T00:40:20;29.35;;;18.15;;
27025;SDS011;14565;48.626;8.978;2023-04-08T00:42:46;35.17;;;17.80;;
27025;SDS011;14565;48.626;8.978;2023-04-08T00:45:14;31.30;;;17.67;;
27025;SDS011;14565;48.626;8.978;2023-04-08T00:47:42;31.27;;;17.98;;
27025;SDS011;14565;48.626;8.978;2023-04-08T00:50:16;33.13;;;18.02;;
27025;SDS011;14565;48.626;8.978;2023-04-08T00:52:42;28.80;;;16.95;;
27025;SDS011;14565;48.626;8.978;2023-04-08T00:55:10;32.78;;;17.52;;
27025;SDS011;14565;48.626;8.978;2023-04-08T00:57:41;31.48;;;17.75;;
27025;SDS011;14565;48.626;8.978;2023-04-08T01:00:10;30.50;;;17.15;;
27025;SDS011;14565;48.626;8.978;2023-04-08T01:02:52;30.15;;;17.85;;
27025;SDS011;14565;48.626;8.978;2023-04-08T01:08:21;32.25;;;17.55;;
27025;SDS011;14565;48.626;8.978;2023-04-08T01:10:57;27.50;;;16.63;;
27025;SDS011;14565;48.626;8.978;2023-04-08T01:13:32;30.90;;;17.13;;
27025;SDS011;14565;48.626;8.978;2023-04-08T01:16:01;28.20;;;17.95;;
27025;SDS011;14565;48.626;8.978;2023-04-08T01:18:30;30.88;;;17.48;;
27025;SDS011;14565;48.626;8.978;2023-04-08T01:21:05;29.95;;;16.95;;
27025;SDS011;14565;48.626;8.978;2023-04-08T01:23:38;26.15;;;16.80;;
27025;SDS011;14565;48.626;8.978;2023-04-08T01:26:09;27.17;;;17.08;;
27025;SDS011;14565;48.626;8.978;2023-04-08T01:28:43;28.48;;;16.80;;
27025;SDS011;14565;48.626;8.978;2023-04-08T01:31:09;27.08;;;17.13;;
27025;SDS011;14565;48.626;8.978;2023-04-08T01:33:35;23.70;;;16.15;;
27025;SDS011;14565;48.626;8.978;2023-04-08T01:36:01;24.92;;;16.52;;
27025;SDS011;14565;48.626;8.978;2023-04-08T01:38:29;26.80;;;16.85;;
27025;SDS011;14565;48.626;8.978;2023-04-08T01:40:58;29.30;;;18.10;;
27025;SDS011;14565;48.626;8.978;2023-04-08T01:43:27;26.73;;;17.35;;
27025;SDS011;14565;48.626;8.978;2023-04-08T01:45:59;29.55;;;17.48;;
27025;SDS011;14565;48.626;8.978;2023-04-08T01:48:26;27.02;;;16.63;;
27025;SDS011;14565;48.626;8.978;2023-04-08T01:51:02;31.02;;;18.67;;
27025;SDS011;14565;48.626;8.978;2023-04-08T01:53:32;29.73;;;18.08;;
27025;SDS011;14565;48.626;8.978;2023-04-08T01:56:01;30.42;;;18.65;;
27025;SDS011;14565;48.626;8.978;2023-04-08T01:58:40;31.38;;;18.92;;
27025;SDS011;14565;48.626;8.978;2023-04-08T02:01:14;29.90;;;18.60;;
27025;SDS011;14565;48.626;8.978;2023-04-08T02:03:51;30.02;;;19.35;;
27025;SDS011;14565;48.626;8.978;2023-04-08T02:08:53;35.53;;;21.23;;
27025;SDS011;14565;48.626;8.978;2023-04-08T02:11:20;37.95;;;21.73;;
27025;SDS011;14565;48.626;8.978;2023-04-08T02:13:45;35.92;;;20.98;;
27025;SDS011;14565;48.626;8.978;2023-04-08T02:18:42;35.17;;;21.15;;
27025;SDS011;14565;48.626;8.978;2023-04-08T02:21:13;37.72;;;22.33;;
27025;SDS011;14565;48.626;8.978;2023-04-08T02:23:40;40.53;;;22.33;;
27025;SDS011;14565;48.626;8.978;2023-04-08T02:26:13;36.90;;;22.58;;
27025;SDS011;14565;48.626;8.978;2023-04-08T02:28:40;36.20;;;20.95;;
27025;SDS011;14565;48.626;8.978;2023-04-08T02:31:11;39.97;;;23.58;;
27025;SDS011;14565;48.626;8.978;2023-04-08T02:33:38;38.50;;;22.85;;
27025;SDS011;14565;48.626;8.978;2023-04-08T02:36:05;42.77;;;23.23;;
27025;SDS011;14565;48.626;8.978;2023-04-08T02:38:31;41.30;;;22.98;;
27025;SDS011;14565;48.626;8.978;2023-04-08T02:40:57;42.13;;;23.17;;
27025;SDS011;14565;48.626;8.978;2023-04-08T02:43:23;41.65;;;22.23;;
27025;SDS011;14565;48.626;8.978;2023-04-08T02:45:56;41.17;;;22.48;;
27025;SDS011;14565;48.626;8.978;2023-04-08T02:48:23;43.27;;;24.30;;
27025;SDS011;14565;48.626;8.978;2023-04-08T02:50:49;44.60;;;23.15;;
27025;SDS011;14565;48.626;8.978;2023-04-08T02:53:14;42.92;;;23.25;;
27025;SDS011;14565;48.626;8.978;2023-04-08T02:55:40;45.33;;;22.88;;
27025;SDS011;14565;48.626;8.978;2023-04-08T02:58:06;47.05;;;24.98;;
27025;SDS011;14565;48.626;8.978;2023-04-08T03:00:31;45.58;;;22.58;;
27025;SDS011;14565;48.626;8.978;2023-04-08T03:02:57;38.88;;;22.52;;
27025;SDS011;14565;48.626;8.978;2023-04-08T03:05:23;40.92;;;21.60;;
27025;SDS011;14565;48.626;8.978;2023-04-08T03:07:51;42.40;;;22.80;;
27025;SDS011;14565;48.626;8.978;2023-04-08T03:10:16;41.20;;;23.33;;
27025;SDS011;14565;48.626;8.978;2023-04-08T03:12:42;44.85;;;23.02;;
27025;SDS011;14565;48.626;8.978;2023-04-08T03:15:08;48.20;;;24.30;;
27025;SDS011;14565;48.626;8.978;2023-04-08T03:17:34;44.30;;;23.17;;
27025;SDS011;14565;48.626;8.978;2023-04-08T03:19:59;48.45;;;22.60;;
27025;SDS011;14565;48.626;8.978;2023-04-08T03:22:28;46.90;;;24.42;;
27025;SDS011;14565;48.626;8.978;2023-04-08T03:24:54;49.88;;;23.95;;
27025;SDS011;14565;48.626;8.978;2023-04-08T03:27:20;41.40;;;22.58;;
27025;SDS011;14565;48.626;8.978;2023-04-08T03:29:45;43.13;;;23.33;;
27025;SDS011;14565;48.626;8.978;2023-04-08T03:32:11;41.20;;;21.60;;
27025;SDS011;14565;48.626;8.978;2023-04-08T03:34:37;41.20;;;21.55;;
27025;SDS011;14565;48.626;8.978;2023-04-08T03:37:03;41.17;;;20.83;;
27025;SDS011;14565;48.626;8.978;2023-04-08T03:39:28;39.22;;;20.23;;
27025;SDS011;14565;48.626;8.978;2023-04-08T03:41:55;38.72;;;20.05;;
27025;SDS011;14565;48.626;8.978;2023-04-08T03:44:21;39.78;;;20.60;;
27025;SDS011;14565;48.626;8.978;2023-04-08T03:46:46;36.80;;;19.08;;
27025;SDS011;14565;48.626;8.978;2023-04-08T03:49:12;36.75;;;19.45;;
27025;SDS011;14565;48.626;8.978;2023-04-08T03:51:38;36.90;;;19.38;;
27025;SDS011;14565;48.626;8.978;2023-04-08T03:54:03;37.08;;;19.13;;
27025;SDS011;14565;48.626;8.978;2023-04-08T03:56:29;35.05;;;18.98;;
27025;SDS011;14565;48.626;8.978;2023-04-08T03:58:55;34.58;;;16.90;;
27025;SDS011;14565;48.626;8.978;2023-04-08T04:01:20;31.48;;;16.65;;
27025;SDS011;14565;48.626;8.978;2023-04-08T04:03:49;32.15;;;17.90;;
27025;SDS011;14565;48.626;8.978;2023-04-08T04:06:14;26.85;;;15.63;;
27025;SDS011;14565;48.626;8.978;2023-04-08T04:08:40;27.23;;;14.98;;
27025;SDS011;14565;48.626;8.978;2023-04-08T04:11:06;29.73;;;15.68;;
27025;SDS011;14565;48.626;8.978;2023-04-08T04:13:31;25.77;;;14.63;;
27025;SDS011;14565;48.626;8.978;2023-04-08T04:15:57;22.65;;;13.68;;
27025;SDS011;14565;48.626;8.978;2023-04-08T04:18:22;19.75;;;12.63;;
27025;SDS011;14565;48.626;8.978;2023-04-08T04:20:48;19.63;;;11.50;;
27025;SDS011;14565;48.626;8.978;2023-04-08T04:23:14;21.20;;;12.05;;
27025;SDS011;14565;48.626;8.978;2023-04-08T04:25:40;20.42;;;12.45;;
27025;SDS011;14565;48.626;8.978;2023-04-08T04:28:06;21.50;;;13.15;;
27025;SDS011;14565;48.626;8.978;2023-04-08T04:30:35;19.08;;;12.15;;
27025;SDS011;14565;48.626;8.978;2023-04-08T04:33:02;21.95;;;12.73;;
27025;SDS011;14565;48.626;8.978;2023-04-08T04:35:28;19.60;;;12.70;;
27025;SDS011;14565;48.626;8.978;2023-04-08T04:37:53;19.75;;;13.20;;
27025;SDS011;14565;48.626;8.978;2023-04-08T04:40:19;23.92;;;15.00;;
27025;SDS011;14565;48.626;8.978;2023-04-08T04:42:45;26.17;;;17.45;;
27025;SDS011;14565;48.626;8.978;2023-04-08T04:45:11;25.40;;;15.55;;
27025;SDS011;14565;48.626;8.978;2023-04-08T04:47:37;19.52;;;13.02;;
27025;SDS011;14565;48.626;8.978;2023-04-08T04:50:02;21.60;;;13.18;;
27025;SDS011;14565;48.626;8.978;2023-04-08T04:52:29;22.92;;;13.63;;
27025;SDS011;14565;48.626;8.978;2023-04-08T04:54:56;25.85;;;13.32;;
27025;SDS011;14565;48.626;8.978;2023-04-08T04:57:22;20.75;;;13.07;;
27025;SDS011;14565;48.626;8.978;2023-04-08T04:59:47;22.15;;;13.38;;
27025;SDS011;14565;48.626;8.978;2023-04-08T05:02:13;23.48;;;14.10;;
27025;SDS011;14565;48.626;8.978;2023-04-08T05:04:39;21.48;;;13.40;;
27025;SDS011;14565;48.626;8.978;2023-04-08T05:07:05;20.38;;;12.82;;
27025;SDS011;14565;48.626;8.978;2023-04-08T05:09:30;27.23;;;14.00;;
27025;SDS011;14565;48.626;8.978;2023-04-08T05:12:05;21.67;;;13.27;;
27025;SDS011;14565;48.626;8.978;2023-04-08T05:14:30;22.17;;;14.30;;
27025;SDS011;14565;48.626;8.978;2023-04-08T05:16:57;20.42;;;13.70;;
27025;SDS011;14565;48.626;8.978;2023-04-08T05:19:23;21.63;;;13.93;;
27025;SDS011;14565;48.626;8.978;2023-04-08T05:21:48;19.92;;;12.88;;
27025;SDS011;14565;48.626;8.978;2023-04-08T05:24:14;21.83;;;13.77;;
27025;SDS011;14565;48.626;8.978;2023-04-08T05:26:40;20.23;;;13.52;;
27025;SDS011;14565;48.626;8.978;2023-04-08T05:29:05;21.35;;;13.07;;
27025;SDS011;14565;48.626;8.978;2023-04-08T05:31:31;21.23;;;13.05;;
27025;SDS011;14565;48.626;8.978;2023-04-08T05:33:56;21.67;;;13.15;;
27025;SDS011;14565;48.626;8.978;2023-04-08T05:36:22;20.33;;;12.85;;
27025;SDS011;14565;48.626;8.978;2023-04-08T05:38:48;19.45;;;12.93;;
27025;SDS011;14565;48.626;8.978;2023-04-08T05:41:13;21.85;;;14.00;;
27025;SDS011;14565;48.626;8.978;2023-04-08T05:43:39;22.45;;;14.48;;
27025;SDS011;14565;48.626;8.978;2023-04-08T05:46:08;19.70;;;14.05;;
27025;SDS011;14565;48.626;8.978;2023-04-08T05:48:34;20.27;;;13.68;;
27025;SDS011;14565;48.626;8.978;2023-04-08T05:51:00;22.35;;;12.90;;
27025;SDS011;14565;48.626;8.978;2023-04-08T05:53:26;22.40;;;14.15;;
27025;SDS011;14565;48.626;8.978;2023-04-08T05:55:52;17.48;;;12.15;;
27025;SDS011;14565;48.626;8.978;2023-04-08T05:58:18;16.52;;;11.23;;
27025;SDS011;14565;48.626;8.978;2023-04-08T06:00:43;18.95;;;11.30;;
27025;SDS011;14565;48.626;8.978;2023-04-08T06:03:09;17.40;;;12.30;;
27025;SDS011;14565;48.626;8.978;2023-04-08T06:05:37;17.10;;;11.57;;
27025;SDS011;14565;48.626;8.978;2023-04-08T06:08:03;15.55;;;11.15;;
27025;SDS011;14565;48.626;8.978;2023-04-08T06:10:29;15.35;;;10.68;;
27025;SDS011;14565;48.626;8.978;2023-04-08T06:12:55;16.73;;;10.70;;
27025;SDS011;14565;48.626;8.978;2023-04-08T06:15:20;14.73;;;10.60;;
27025;SDS011;14565;48.626;8.978;2023-04-08T06:17:46;15.63;;;10.90;;
27025;SDS011;14565;48.626;8.978;2023-04-08T06:20:12;15.18;;;10.80;;
27025;SDS011;14565;48.626;8.978;2023-04-08T06:22:37;15.52;;;10.82;;
27025;SDS011;14565;48.626;8.978;2023-04-08T06:25:03;16.27;;;10.95;;
27025;SDS011;14565;48.626;8.978;2023-04-08T06:27:29;15.80;;;10.95;;
27025;SDS011;14565;48.626;8.978;2023-04-08T06:29:54;15.95;;;10.35;;
27025;SDS011;14565;48.626;8.978;2023-04-08T06:32:21;15.20;;;10.05;;
27025;SDS011;14565;48.626;8.978;2023-04-08T06:34:47;15.35;;;11.13;;
27025;SDS011;14565;48.626;8.978;2023-04-08T06:37:13;17.83;;;10.13;;
27025;SDS011;14565;48.626;8.978;2023-04-08T06:39:38;12.98;;;9.13;;
27025;SDS011;14565;48.626;8.978;2023-04-08T06:42:04;13.15;;;10.50;;
27025;SDS011;14565;48.626;8.978;2023-04-08T06:44:30;13.75;;;10.23;;
27025;SDS011;14565;48.626;8.978;2023-04-08T06:46:56;12.55;;;8.38;;
27025;SDS011;14565;48.626;8.978;2023-04-08T06:49:21;14.13;;;9.90;;
27025;SDS011;14565;48.626;8.978;2023-04-08T06:51:51;14.13;;;10.02;;
27025;SDS011;14565;48.626;8.978;2023-04-08T06:54:17;14.60;;;9.95;;
27025;SDS011;14565;48.626;8.978;2023-04-08T06:56:42;14.63;;;10.80;;
27025;SDS011;14565;48.626;8.978;2023-04-08T06:59:08;19.17;;;11.88;;
27025;SDS011;14565;48.626;8.978;2023-04-08T07:04:01;16.73;;;11.32;;
27025;SDS011;14565;48.626;8.978;2023-04-08T07:06:27;17.02;;;11.82;;
27025;SDS011;14565;48.626;8.978;2023-04-08T07:08:56;16.67;;;11.05;;
27025;SDS011;14565;48.626;8.978;2023-04-08T07:11:24;17.10;;;11.70;;
27025;SDS011;14565;48.626;8.978;2023-04-08T07:13:50;15.98;;;11.18;;
27025;SDS011;14565;48.626;8.978;2023-04-08T07:16:16;14.70;;;10.88;;
27025;SDS011;14565;48.626;8.978;2023-04-08T07:18:44;15.10;;;10.52;;
27025;SDS011;14565;48.626;8.978;2023-04-08T07:21:14;14.25;;;10.73;;
27025;SDS011;14565;48.626;8.978;2023-04-08T07:24:00;14.10;;;9.50;;
27025;SDS011;14565;48.626;8.978;2023-04-08T07:26:25;11.93;;;9.45;;
27025;SDS011;14565;48.626;8.978;2023-04-08T07:28:52;14.00;;;9.27;;
27025;SDS011;14565;48.626;8.978;2023-04-08T07:31:18;10.88;;;8.10;;
27025;SDS011;14565;48.626;8.978;2023-04-08T07:33:44;10.82;;;8.27;;
27025;SDS011;14565;48.626;8.978;2023-04-08T07:36:10;12.10;;;7.57;;
27025;SDS011;14565;48.626;8.978;2023-04-08T07:38:38;11.05;;;7.82;;
27025;SDS011;14565;48.626;8.978;2023-04-08T07:41:03;8.73;;;7.00;;
27025;SDS011;14565;48.626;8.978;2023-04-08T07:43:30;11.30;;;8.02;;
27025;SDS011;14565;48.626;8.978;2023-04-08T07:46:00;11.82;;;8.30;;
27025;SDS011;14565;48.626;8.978;2023-04-08T07:48:27;13.10;;;8.65;;
27025;SDS011;14565;48.626;8.978;2023-04-08T07:50:53;14.02;;;9.10;;
27025;SDS011;14565;48.626;8.978;2023-04-08T07:53:20;11.38;;;8.75;;
27025;SDS011;14565;48.626;8.978;2023-04-08T07:55:46;12.57;;;8.95;;
27025;SDS011;14565;48.626;8.978;2023-04-08T07:58:12;12.82;;;8.80;;
27025;SDS011;14565;48.626;8.978;2023-04-08T08:00:37;10.77;;;6.93;;
27025;SDS011;14565;48.626;8.978;2023-04-08T08:03:04;10.63;;;7.88;;
27025;SDS011;14565;48.626;8.978;2023-04-08T08:05:30;11.93;;;8.23;;
27025;SDS011;14565;48.626;8.978;2023-04-08T08:07:56;13.57;;;8.23;;
27025;SDS011;14565;48.626;8.978;2023-04-08T08:10:21;13.82;;;8.45;;
27025;SDS011;14565;48.626;8.978;2023-04-08T08:12:47;13.18;;;8.40;;
27025;SDS011;14565;48.626;8.978;2023-04-08T08:15:12;10.52;;;7.75;;
27025;SDS011;14565;48.626;8.978;2023-04-08T08:17:38;10.82;;;8.07;;
27025;SDS011;14565;48.626;8.978;2023-04-08T08:20:04;11.68;;;7.50;;
27025;SDS011;14565;48.626;8.978;2023-04-08T08:22:31;11.30;;;7.75;;
27025;SDS011;14565;48.626;8.978;2023-04-08T08:24:56;11.57;;;7.57;;
27025;SDS011;14565;48.626;8.978;2023-04-08T08:27:23;12.30;;;8.38;;
27025;SDS011;14565;48.626;8.978;2023-04-08T08:29:49;12.13;;;8.80;;
27025;SDS011;14565;48.626;8.978;2023-04-08T08:32:16;13.77;;;7.90;;
27025;SDS011;14565;48.626;8.978;2023-04-08T08:34:42;11.75;;;8.30;;
27025;SDS011;14565;48.626;8.978;2023-04-08T08:37:08;12.63;;;7.85;;
27025;SDS011;14565;48.626;8.978;2023-04-08T08:39:34;11.13;;;8.40;;
27025;SDS011;14565;48.626;8.978;2023-04-08T08:42:00;11.55;;;8.77;;
27025;SDS011;14565;48.626;8.978;2023-04-08T08:44:25;10.68;;;8.23;;
27025;SDS011;14565;48.626;8.978;2023-04-08T08:46:52;11.63;;;8.52;;
27025;SDS011;14565;48.626;8.978;2023-04-08T08:49:18;15.65;;;9.30;;
27025;SDS011;14565;48.626;8.978;2023-04-08T08:51:46;12.15;;;8.50;;
27025;SDS011;14565;48.626;8.978;2023-04-08T08:54:14;13.18;;;8.95;;
27025;SDS011;14565;48.626;8.978;2023-04-08T08:56:40;15.73;;;8.82;;
27025;SDS011;14565;48.626;8.978;2023-04-08T08:59:07;13.40;;;8.93;;
27025;SDS011;14565;48.626;8.978;2023-04-08T09:01:38;12.02;;;9.13;;
27025;SDS011;14565;48.626;8.978;2023-04-08T09:04:09;11.00;;;8.95;;
27025;SDS011;14565;48.626;8.978;2023-04-08T09:06:40;12.70;;;8.45;;
27025;SDS011;14565;48.626;8.978;2023-04-08T09:09:06;11.77;;;8.05;;
27025;SDS011;14565;48.626;8.978;2023-04-08T09:11:42;13.52;;;9.38;;
27025;SDS011;14565;48.626;8.978;2023-04-08T09:16:47;13.93;;;10.35;;
27025;SDS011;14565;48.626;8.978;2023-04-08T09:19:13;12.82;;;9.05;;
27025;SDS011;14565;48.626;8.978;2023-04-08T09:21:39;14.52;;;9.88;;
27025;SDS011;14565;48.626;8.978;2023-04-08T09:24:05;14.68;;;9.20;;
27025;SDS011;14565;48.626;8.978;2023-04-08T09:26:32;13.55;;;9.90;;
27025;SDS011;14565;48.626;8.978;2023-04-08T09:29:02;11.93;;;9.13;;
27025;SDS011;14565;48.626;8.978;2023-04-08T09:34:12;13.48;;;9.30;;
27025;SDS011;14565;48.626;8.978;2023-04-08T09:36:43;12.23;;;9.35;;
27025;SDS011;14565;48.626;8.978;2023-04-08T09:39:09;11.38;;;9.10;;
27025;SDS011;14565;48.626;8.978;2023-04-08T09:41:36;14.10;;;10.13;;
27025;SDS011;14565;48.626;8.978;2023-04-08T09:44:03;14.68;;;9.93;;
27025;SDS011;14565;48.626;8.978;2023-04-08T09:57:39;16.48;;;9.65;;
27025;SDS011;14565;48.626;8.978;2023-04-08T10:00:08;14.52;;;10.70;;
27025;SDS011;14565;48.626;8.978;2023-04-08T10:05:12;11.88;;;9.43;;
27025;SDS011;14565;48.626;8.978;2023-04-08T10:07:38;13.40;;;10.10;;
27025;SDS011;14565;48.626;8.978;2023-04-08T10:10:05;14.32;;;10.38;;
27025;SDS011;14565;48.626;8.978;2023-04-08T10:12:35;15.48;;;10.57;;
27025;SDS011;14565;48.626;8.978;2023-04-08T10:17:49;15.68;;;10.32;;
27025;SDS011;14565;48.626;8.978;2023-04-08T10:20:49;13.60;;;10.07;;
27025;SDS011;14565;48.626;8.978;2023-04-08T10:23:09;13.35;;;9.88;;
27025;SDS011;14565;48.626;8.978;2023-04-08T10:25:55;13.38;;;10.07;;
27025;SDS011;14565;48.626;8.978;2023-04-08T10:30:48;15.82;;;10.82;;
27025;SDS011;14565;48.626;8.978;2023-04-08T10:33:20;12.70;;;9.82;;
27025;SDS011;14565;48.626;8.978;2023-04-08T10:36:10;14.05;;;10.13;;
27025;SDS011;14565;48.626;8.978;2023-04-08T10:38:40;12.95;;;9.95;;
27025;SDS011;14565;48.626;8.978;2023-04-08T10:41:06;13.48;;;10.18;;
27025;SDS011;14565;48.626;8.978;2023-04-08T10:46:02;13.52;;;9.95;;
27025;SDS011;14565;48.626;8.978;2023-04-08T10:48:28;13.32;;;10.23;;
27025;SDS011;14565;48.626;8.978;2023-04-08T10:50:55;15.07;;;10.55;;
27025;SDS011;14565;48.626;8.978;2023-04-08T10:53:28;15.23;;;10.48;;
27025;SDS011;14565;48.626;8.978;2023-04-08T10:58:31;14.30;;;11.15;;
27025;SDS011;14565;48.626;8.978;2023-04-08T11:01:04;15.00;;;10.68;;
27025;SDS011;14565;48.626;8.978;2023-04-08T11:03:31;13.48;;;11.05;;
27025;SDS011;14565;48.626;8.978;2023-04-08T11:05:58;12.90;;;10.25;;
27025;SDS011;14565;48.626;8.978;2023-04-08T11:08:28;14.13;;;10.45;;
27025;SDS011;14565;48.626;8.978;2023-04-08T11:10:54;15.63;;;11.20;;
27025;SDS011;14565;48.626;8.978;2023-04-08T11:13:20;14.18;;;10.75;;
27025;SDS011;14565;48.626;8.978;2023-04-08T11:15:47;16.52;;;11.82;;
27025;SDS011;14565;48.626;8.978;2023-04-08T11:18:14;15.20;;;10.75;;
27025;SDS011;14565;48.626;8.978;2023-04-08T11:20:42;15.52;;;12.02;;
27025;SDS011;14565;48.626;8.978;2023-04-08T11:23:14;13.82;;;11.38;;
27025;SDS011;14565;48.626;8.978;2023-04-08T11:25:41;14.40;;;10.85;;
27025;SDS011;14565;48.626;8.978;2023-04-08T11:28:07;16.73;;;11.50;;
27025;SDS011;14565;48.626;8.978;2023-04-08T11:30:33;16.50;;;10.88;;
27025;SDS011;14565;48.626;8.978;2023-04-08T11:32:59;16.63;;;10.52;;
27025;SDS011;14565;48.626;8.978;2023-04-08T11:35:28;16.83;;;11.00;;
27025;SDS011;14565;48.626;8.978;2023-04-08T11:37:55;17.48;;;10.98;;
27025;SDS011;14565;48.626;8.978;2023-04-08T11:40:22;15.68;;;10.98;;
27025;SDS011;14565;48.626;8.978;2023-04-08T11:42:48;14.60;;;11.45;;
27025;SDS011;14565;48.626;8.978;2023-04-08T11:45:16;15.55;;;10.88;;
27025;SDS011;14565;48.626;8.978;2023-04-08T11:47:45;14.30;;;11.50;;
27025;SDS011;14565;48.626;8.978;2023-04-08T11:50:12;13.90;;;11.13;;
27025;SDS011;14565;48.626;8.978;2023-04-08T11:52:49;15.65;;;11.73;;
27025;SDS011;14565;48.626;8.978;2023-04-08T11:55:26;16.77;;;11.40;;
27025;SDS011;14565;48.626;8.978;2023-04-08T11:57:53;13.88;;;10.98;;
27025;SDS011;14565;48.626;8.978;2023-04-08T12:00:20;14.93;;;11.00;;
27025;SDS011;14565;48.626;8.978;2023-04-08T12:02:46;13.80;;;10.32;;
27025;SDS011;14565;48.626;8.978;2023-04-08T12:05:15;16.38;;;11.15;;
27025;SDS011;14565;48.626;8.978;2023-04-08T12:07:41;14.55;;;10.88;;
27025;SDS011;14565;48.626;8.978;2023-04-08T12:10:08;14.55;;;9.60;;
27025;SDS011;14565;48.626;8.978;2023-04-08T12:12:35;14.07;;;11.02;;
27025;SDS011;14565;48.626;8.978;2023-04-08T12:15:01;13.10;;;10.48;;
27025;SDS011;14565;48.626;8.978;2023-04-08T12:17:26;15.35;;;10.70;;
27025;SDS011;14565;48.626;8.978;2023-04-08T12:19:52;16.95;;;11.05;;
27025;SDS011;14565;48.626;8.978;2023-04-08T12:22:18;15.07;;;10.70;;
27025;SDS011;14565;48.626;8.978;2023-04-08T12:24:43;16.23;;;11.32;;
27025;SDS011;14565;48.626;8.978;2023-04-08T12:27:09;14.15;;;10.38;;
27025;SDS011;14565;48.626;8.978;2023-04-08T12:29:35;13.95;;;11.02;;
27025;SDS011;14565;48.626;8.978;2023-04-08T12:32:00;16.45;;;11.18;;
27025;SDS011;14565;48.626;8.978;2023-04-08T12:34:28;12.60;;;10.57;;
27025;SDS011;14565;48.626;8.978;2023-04-08T12:36:53;20.23;;;11.25;;
27025;SDS011;14565;48.626;8.978;2023-04-08T12:39:20;13.95;;;11.27;;
27025;SDS011;14565;48.626;8.978;2023-04-08T12:41:46;14.40;;;11.52;;
27025;SDS011;14565;48.626;8.978;2023-04-08T12:44:12;16.27;;;11.38;;
27025;SDS011;14565;48.626;8.978;2023-04-08T12:46:37;14.57;;;11.20;;
27025;SDS011;14565;48.626;8.978;2023-04-08T12:49:03;15.75;;;10.77;;
27025;SDS011;14565;48.626;8.978;2023-04-08T12:51:29;15.85;;;10.80;;
27025;SDS011;14565;48.626;8.978;2023-04-08T12:53:55;15.27;;;10.93;;
27025;SDS011;14565;48.626;8.978;2023-04-08T12:56:20;18.13;;;10.82;;
27025;SDS011;14565;48.626;8.978;2023-04-08T12:58:46;14.13;;;10.70;;
27025;SDS011;14565;48.626;8.978;2023-04-08T13:01:12;13.98;;;10.38;;
27025;SDS011;14565;48.626;8.978;2023-04-08T13:03:38;16.35;;;10.85;;
27025;SDS011;14565;48.626;8.978;2023-04-08T13:06:03;12.40;;;10.13;;
27025;SDS011;14565;48.626;8.978;2023-04-08T13:08:29;14.35;;;10.23;;
27025;SDS011;14565;48.626;8.978;2023-04-08T13:10:55;11.90;;;9.45;;
27025;SDS011;14565;48.626;8.978;2023-04-08T13:13:20;14.18;;;10.55;;
27025;SDS011;14565;48.626;8.978;2023-04-08T13:15:46;14.18;;;11.05;;
27025;SDS011;14565;48.626;8.978;2023-04-08T13:18:12;15.30;;;10.90;;
27025;SDS011;14565;48.626;8.978;2023-04-08T13:20:38;15.25;;;10.70;;
27025;SDS011;14565;48.626;8.978;2023-04-08T13:23:03;14.27;;;10.10;;
27025;SDS011;14565;48.626;8.978;2023-04-08T13:25:29;14.30;;;10.63;;
27025;SDS011;14565;48.626;8.978;2023-04-08T13:27:55;16.00;;;10.85;;
27025;SDS011;14565;48.626;8.978;2023-04-08T13:30:21;14.68;;;10.95;;
27025;SDS011;14565;48.626;8.978;2023-04-08T13:32:47;14.68;;;11.15;;
27025;SDS011;14565;48.626;8.978;2023-04-08T13:35:12;12.35;;;9.88;;
27025;SDS011;14565;48.626;8.978;2023-04-08T13:37:38;14.15;;;10.60;;
27025;SDS011;14565;48.626;8.978;2023-04-08T13:40:04;13.80;;;10.13;;
27025;SDS011;14565;48.626;8.978;2023-04-08T13:42:30;14.02;;;10.77;;
27025;SDS011;14565;48.626;8.978;2023-04-08T13:44:56;15.30;;;11.02;;
27025;SDS011;14565;48.626;8.978;2023-04-08T13:47:22;15.75;;;11.02;;
27025;SDS011;14565;48.626;8.978;2023-04-08T13:49:48;15.75;;;10.85;;
27025;SDS011;14565;48.626;8.978;2023-04-08T13:52:14;13.85;;;9.82;;
27025;SDS011;14565;48.626;8.978;2023-04-08T13:54:40;14.25;;;11.02;;
27025;SDS011;14565;48.626;8.978;2023-04-08T13:57:06;16.65;;;11.52;;
27025;SDS011;14565;48.626;8.978;2023-04-08T13:59:31;13.90;;;11.07;;
27025;SDS011;14565;48.626;8.978;2023-04-08T14:01:57;13.75;;;11.55;;
27025;SDS011;14565;48.626;8.978;2023-04-08T14:04:23;16.60;;;11.60;;
27025;SDS011;14565;48.626;8.978;2023-04-08T14:06:49;15.65;;;11.75;;
27025;SDS011;14565;48.626;8.978;2023-04-08T14:09:18;16.13;;;11.30;;
27025;SDS011;14565;48.626;8.978;2023-04-08T14:11:45;13.55;;;11.63;;
27025;SDS011;14565;48.626;8.978;2023-04-08T14:14:11;14.70;;;11.73;;
27025;SDS011;14565;48.626;8.978;2023-04-08T14:16:37;13.00;;;11.07;;
27025;SDS011;14565;48.626;8.978;2023-04-08T14:19:02;16.42;;;12.02;;
27025;SDS011;14565;48.626;8.978;2023-04-08T14:21:29;14.55;;;11.38;;
27025;SDS011;14565;48.626;8.978;2023-04-08T14:23:55;15.05;;;10.82;;
27025;SDS011;14565;48.626;8.978;2023-04-08T14:26:21;16.13;;;11.25;;
27025;SDS011;14565;48.626;8.978;2023-04-08T14:28:47;13.55;;;10.50;;
27025;SDS011;14565;48.626;8.978;2023-04-08T14:31:13;15.77;;;11.60;;
27025;SDS011;14565;48.626;8.978;2023-04-08T14:33:39;14.93;;;10.82;;
27025;SDS011;14565;48.626;8.978;2023-04-08T14:36:06;14.02;;;11.27;;
27025;SDS011;14565;48.626;8.978;2023-04-08T14:38:35;15.93;;;11.70;;
27025;SDS011;14565;48.626;8.978;2023-04-08T14:41:04;14.73;;;11.52;;
27025;SDS011;14565;48.626;8.978;2023-04-08T14:43:30;18.08;;;12.25;;
27025;SDS011;14565;48.626;8.978;2023-04-08T14:45:55;14.00;;;10.88;;
27025;SDS011;14565;48.626;8.978;2023-04-08T14:48:21;13.45;;;10.15;;
27025;SDS011;14565;48.626;8.978;2023-04-08T14:50:50;14.63;;;10.63;;
27025;SDS011;14565;48.626;8.978;2023-04-08T14:53:16;14.00;;;10.32;;
27025;SDS011;14565;48.626;8.978;2023-04-08T14:55:42;14.50;;;11.00;;
27025;SDS011;14565;48.626;8.978;2023-04-08T14:58:07;14.23;;;10.77;;
27025;SDS011;14565;48.626;8.978;2023-04-08T15:00:33;15.40;;;10.73;;
27025;SDS011;14565;48.626;8.978;2023-04-08T15:02:59;15.75;;;11.63;;
27025;SDS011;14565;48.626;8.978;2023-04-08T15:05:24;15.80;;;11.40;;